Kahloke — CZ3845 — position and weather

sailwx.info

Track history (hours):
 
Tides and Currents Weather Stations Pressure Air Temp Water Temp Dewpoint Dewpoint Depression Visibility Wind Speed Wind Dir Waves Ship Positions

Kahloke

Last reported at 2014-Nov-23 16:33 UTC. Time now 2014-Nov-23 17:15 UTC.
Position N 48°56' W 123°43'.

Length 54 m; draft 2 m.

Type: Passenger vessel. MMSI: 316001236.

Date/timePositionNaut miles runAvg speedWind from/ knotsBaromVisibWave heightAir tempDewpointWater temp
2014-Nov-23 16:33N 48°56' W 123°43'2 1.9
2014-Nov-23 15:24N 48°57' W 123°40'1 1.0
2014-Nov-23 14:21N 48°58' W 123°41'1 0.1
2014-Nov-23 06:22N 48°58' W 123°40'2 2.2
2014-Nov-23 05:33N 48°57' W 123°42'1 0.6
2014-Nov-23 04:33N 48°56' W 123°42'2 1.8
2014-Nov-23 03:30N 48°58' W 123°40'3 2.8
2014-Nov-23 02:33N 48°56' W 123°43'3 2.5
2014-Nov-23 01:31N 48°58' W 123°41'0 0.3
2014-Nov-23 00:33N 48°58' W 123°41'3 3.1
2014-Nov-22 23:33N 48°56' W 123°43'4 2.7
2014-Nov-22 22:15N 48°59' W 123°41'3 4.6
2014-Nov-22 21:33N 48°56' W 123°43'2 2.2
2014-Nov-22 20:33N 48°57' W 123°40'2 2.5
2014-Nov-22 19:33N 48°56' W 123°43'3 3.1
2014-Nov-22 18:27N 48°58' W 123°40'1 0.9
2014-Nov-22 17:33N 48°57' W 123°40'3 2.6
2014-Nov-22 16:33N 48°56' W 123°43'3 3.4
2014-Nov-22 15:33N 48°58' W 123°40'0 0.1
2014-Nov-22 14:27N 48°58' W 123°40'0 0.0
2014-Nov-22 06:33N 48°58' W 123°40'1 1.4
2014-Nov-22 05:33N 48°57' W 123°42'1 0.8
2014-Nov-22 04:33N 48°56' W 123°42'2 1.5
2014-Nov-22 03:29N 48°58' W 123°41'1 1.3
2014-Nov-22 02:28N 48°57' W 123°41'0 0.5
2014-Nov-22 01:33N 48°57' W 123°42'2 1.5
2014-Nov-22 00:31N 48°58' W 123°41'3 3.2
2014-Nov-21 23:32N 48°56' W 123°43'3 2.7
2014-Nov-21 22:32N 48°58' W 123°41'1 0.7
2014-Nov-21 21:28N 48°58' W 123°40'3 3.4
2014-Nov-21 20:33N 48°56' W 123°43'1 0.5
2014-Nov-21 19:32N 48°56' W 123°42'2 1.8
2014-Nov-21 18:17N 48°58' W 123°40'2 2.7
2014-Nov-21 17:33N 48°56' W 123°42'1 0.9
2014-Nov-21 16:33N 48°56' W 123°43'3 3.0
2014-Nov-21 15:31N 48°58' W 123°40'0 0.1
2014-Nov-21 14:27N 48°58' W 123°40'0 0.0
2014-Nov-21 06:30N 48°58' W 123°40'2 1.6
2014-Nov-21 05:33N 48°57' W 123°42'1 1.0
2014-Nov-21 04:33N 48°56' W 123°42'2 2.2
2014-Nov-21 03:25N 48°59' W 123°41'2 2.8
2014-Nov-21 02:33N 48°56' W 123°42'1 0.7
2014-Nov-21 01:31N 48°57' W 123°42'2 1.7
2014-Nov-21 00:31N 48°59' W 123°41'4 3.7
2014-Nov-20 23:33N 48°56' W 123°43'3 2.8
2014-Nov-20 22:28N 48°58' W 123°40'1 1.0
2014-Nov-20 21:28N 48°59' W 123°41'3 3.2
2014-Nov-20 20:33N 48°56' W 123°42'1 1.1
2014-Nov-20 19:31N 48°57' W 123°42'1 0.6
2014-Nov-20 18:25N 48°56' W 123°42'2 2.3
2014-Nov-20 17:29N 48°58' W 123°40'3 3.6
2014-Nov-20 16:33N 48°56' W 123°43'3 2.6
2014-Nov-20 15:29N 48°58' W 123°40'1 0.7
2014-Nov-20 14:30N 48°58' W 123°40'1 0.4
2014-Nov-20 12:16N 48°59' W 123°41'0 0.0
2014-Nov-20 11:31N 48°59' W 123°41'0 0.0
2014-Nov-20 08:07N 48°59' W 123°41'0 0.0
2014-Nov-20 07:31N 48°59' W 123°41'1 1.0
2014-Nov-20 06:33N 48°58' W 123°40'1 1.4
2014-Nov-20 05:33N 48°57' W 123°42'0 0.5
2014-Nov-20 04:33N 48°56' W 123°42'2 1.7
2014-Nov-20 03:32N 48°58' W 123°40'3 2.8
2014-Nov-20 02:33N 48°56' W 123°43'3 2.9
2014-Nov-20 01:33N 48°58' W 123°41'0 0.5
2014-Nov-20 00:33N 48°59' W 123°41'4 3.6
2014-Nov-19 23:33N 48°56' W 123°43'3 2.5
2014-Nov-19 22:16N 48°59' W 123°41'2 2.0
2014-Nov-19 21:30N 48°57' W 123°42'1 0.7
2014-Nov-19 20:33N 48°56' W 123°42'1 1.4
2014-Nov-19 19:31N 48°58' W 123°41'1 1.2
2014-Nov-19 18:32N 48°57' W 123°41'2 1.5
2014-Nov-19 17:33N 48°58' W 123°40'3 3.0
2014-Nov-19 16:33N 48°56' W 123°43'3 3.0
2014-Nov-19 15:32N 48°58' W 123°40'0 0.1
2014-Nov-19 14:28N 48°58' W 123°40'0 0.0
2014-Nov-19 06:31N 48°58' W 123°40'2 1.6
2014-Nov-19 05:33N 48°57' W 123°42'1 1.1
2014-Nov-19 04:31N 48°56' W 123°42'2 1.9
2014-Nov-19 03:30N 48°58' W 123°41'3 2.7
2014-Nov-19 02:32N 48°56' W 123°43'3 2.7
2014-Nov-19 01:33N 48°58' W 123°41'0 0.1
2014-Nov-19 00:33N 48°58' W 123°41'3 2.6
2014-Nov-18 23:25N 48°56' W 123°43'4 4.0
2014-Nov-18 22:32N 48°59' W 123°41'3 2.8
2014-Nov-18 21:31N 48°56' W 123°42'1 1.1
2014-Nov-18 20:33N 48°57' W 123°41'1 0.6
2014-Nov-18 19:33N 48°57' W 123°42'1 0.8
2014-Nov-18 18:33N 48°57' W 123°41'1 1.3
2014-Nov-18 17:33N 48°58' W 123°40'3 3.4
2014-Nov-18 16:33N 48°56' W 123°43'3 2.8
2014-Nov-18 15:30N 48°58' W 123°40'0 0.5
2014-Nov-18 14:32N 48°58' W 123°40'1 0.8
2014-Nov-18 13:23N 48°59' W 123°41'0 0.0
2014-Nov-18 12:05N 48°59' W 123°41'0 0.0
2014-Nov-18 09:29N 48°59' W 123°41'1 0.3
2014-Nov-18 06:32N 48°58' W 123°40'1 1.5
2014-Nov-18 05:33N 48°57' W 123°42'1 1.1
2014-Nov-18 04:33N 48°56' W 123°42'2 2.4
2014-Nov-18 03:33N 48°58' W 123°40'2 2.4
2014-Nov-18 02:32N 48°56' W 123°42'2 2.3
2014-Nov-18 01:32N 48°58' W 123°41'1 0.7
2014-Nov-18 00:30N 48°59' W 123°41'4 3.8
2014-Nov-17 23:33N 48°56' W 123°43'3 2.9
2014-Nov-17 22:30N 48°58' W 123°41'1 0.5
2014-Nov-17 21:31N 48°59' W 123°41'4 3.7
2014-Nov-17 20:33N 48°56' W 123°43'1 1.0
2014-Nov-17 19:32N 48°56' W 123°42'1 1.2
2014-Nov-17 18:33N 48°57' W 123°41'1 0.9
2014-Nov-17 17:31N 48°58' W 123°40'3 3.1
2014-Nov-17 16:33N 48°56' W 123°43'2 2.4
2014-Nov-17 15:32N 48°57' W 123°40'1 1.0
2014-Nov-17 14:32N 48°58' W 123°40'1 0.7
2014-Nov-17 13:13N 48°59' W 123°41'0 0.0
2014-Nov-17 11:28N 48°59' W 123°41'0 0.0
2014-Nov-17 10:22N 48°59' W 123°41'0 0.0
2014-Nov-17 08:31N 48°59' W 123°41'0 0.0
2014-Nov-17 07:13N 48°59' W 123°41'1 1.4
2014-Nov-17 06:33N 48°58' W 123°40'2 1.5
2014-Nov-17 05:33N 48°57' W 123°42'1 0.6
2014-Nov-17 04:33N 48°56' W 123°42'2 1.7
2014-Nov-17 03:33N 48°58' W 123°40'3 2.5
2014-Nov-17 02:33N 48°56' W 123°42'3 2.6
2014-Nov-17 01:32N 48°58' W 123°41'0 0.3
2014-Nov-17 00:33N 48°59' W 123°41'3 3.4
2014-Nov-16 23:33N 48°56' W 123°43'4 3.5
2014-Nov-16 22:33N 48°59' W 123°41'3 3.0
2014-Nov-16 21:33N 48°56' W 123°42'2 1.6
2014-Nov-16 20:33N 48°57' W 123°41'2 2.1
2014-Nov-16 19:32N 48°56' W 123°43'3 3.4
2014-Nov-16 18:32N 48°58' W 123°40'1 0.9
2014-Nov-16 17:33N 48°57' W 123°40'3 2.6
2014-Nov-16 16:34N 48°56' W 123°43'3 3.1
2014-Nov-16 15:33N 48°58' W 123°40'0 0.3
2014-Nov-16 14:32N 48°58' W 123°40'1 0.4
2014-Nov-16 12:23N 48°59' W 123°41'0 0.0
2014-Nov-16 11:05N 48°59' W 123°41'0 0.0
2014-Nov-16 10:32N 48°59' W 123°41'0 0.0
2014-Nov-16 09:08N 48°59' W 123°41'0 0.0
2014-Nov-16 08:23N 48°59' W 123°41'0 0.0
2014-Nov-16 07:26N 48°59' W 123°41'1 0.9
2014-Nov-16 06:28N 48°58' W 123°40'2 2.0
2014-Nov-16 05:33N 48°57' W 123°42'1 0.7
2014-Nov-16 04:33N 48°56' W 123°42'2 1.9
2014-Nov-16 03:33N 48°58' W 123°40'2 2.3
2014-Nov-16 02:33N 48°56' W 123°42'2 2.4
2014-Nov-16 01:32N 48°58' W 123°41'0 0.2
2014-Nov-16 00:33N 48°58' W 123°41'3 3.2
2014-Nov-15 23:33N 48°56' W 123°43'3 2.1
2014-Nov-15 22:10N 48°58' W 123°41'3 4.3
2014-Nov-15 21:33N 48°56' W 123°43'2 2.2
2014-Nov-15 20:33N 48°57' W 123°40'3 2.5
2014-Nov-15 19:33N 48°56' W 123°43'3 3.0
2014-Nov-15 18:27N 48°58' W 123°40'1 0.8
2014-Nov-15 17:33N 48°58' W 123°40'3 2.7
2014-Nov-15 16:33N 48°56' W 123°43'3 2.9
2014-Nov-15 15:32N 48°58' W 123°40'0 0.4
2014-Nov-15 14:31N 48°58' W 123°40'1 0.9
2014-Nov-15 13:28N 48°59' W 123°41'0 0.0
2014-Nov-15 12:04N 48°59' W 123°41'0 0.0
2014-Nov-15 11:31N 48°59' W 123°41'0 0.0
2014-Nov-15 10:28N 48°59' W 123°41'0 0.0
2014-Nov-15 09:10N 48°59' W 123°41'0 0.0
2014-Nov-15 07:19N 48°59' W 123°41'1 1.1
2014-Nov-15 06:32N 48°58' W 123°40'2 1.6
2014-Nov-15 05:33N 48°57' W 123°42'1 1.3
2014-Nov-15 04:34N 48°56' W 123°42'2 2.5
2014-Nov-15 03:33N 48°58' W 123°40'3 2.5
2014-Nov-15 02:33N 48°56' W 123°42'3 2.7
2014-Nov-15 01:34N 48°58' W 123°41'0 0.2
2014-Nov-15 00:31N 48°59' W 123°41'3 3.4
2014-Nov-14 23:33N 48°56' W 123°43'4 3.5
2014-Nov-14 22:32N 48°59' W 123°41'1 1.1
2014-Nov-14 21:33N 48°58' W 123°40'3 3.1
2014-Nov-14 20:33N 48°56' W 123°43'1 0.7
2014-Nov-14 19:34N 48°56' W 123°42'3 2.1
2014-Nov-14 18:15N 48°58' W 123°40'2 3.2
2014-Nov-14 17:33N 48°57' W 123°42'1 1.1
2014-Nov-14 16:33N 48°56' W 123°43'3 3.0
2014-Nov-14 15:32N 48°58' W 123°40'0 0.3
2014-Nov-14 14:29N 48°58' W 123°40'1 0.5
2014-Nov-14 12:32N 48°59' W 123°41'0 0.0
2014-Nov-14 07:17N 48°59' W 123°41'1 1.2
2014-Nov-14 06:30N 48°58' W 123°40'2 2.1
2014-Nov-14 05:33N 48°57' W 123°42'1 0.7
2014-Nov-14 04:33N 48°56' W 123°42'2 2.0
2014-Nov-14 03:33N 48°58' W 123°40'2 2.3
2014-Nov-14 02:33N 48°56' W 123°42'2 2.1
2014-Nov-14 01:30N 48°58' W 123°41'0 0.5
2014-Nov-14 00:33N 48°58' W 123°41'3 3.2
2014-Nov-13 23:33N 48°56' W 123°43'4 3.5
2014-Nov-13 22:32N 48°59' W 123°41'2 2.3
2014-Nov-13 21:32N 48°57' W 123°42'0 0.4
2014-Nov-13 20:33N 48°56' W 123°42'0 0.4
2014-Nov-13 19:33N 48°57' W 123°42'1 0.7
2014-Nov-13 18:33N 48°57' W 123°41'1 1.2
2014-Nov-13 17:29N 48°58' W 123°40'  
Track history (hours):
 
Tides and Currents Weather Stations Pressure Air Temp Water Temp Dewpoint Dewpoint Depression Visibility Wind Speed Wind Dir Waves Ship Positions

Kahloke

Last reported at 2014-Nov-23 16:33 UTC. Time now 2014-Nov-23 17:15 UTC.
Position N 48°56' W 123°43'.

Length 54 m; draft 2 m.

Type: Passenger vessel. MMSI: 316001236.

Date/timePositionNaut miles runAvg speedWind from/ knotsBaromVisibWave heightAir tempDewpointWater temp
2014-Nov-23 16:33N 48°56' W 123°43'2 1.9
2014-Nov-23 15:24N 48°57' W 123°40'1 1.0
2014-Nov-23 14:21N 48°58' W 123°41'1 0.1
2014-Nov-23 06:22N 48°58' W 123°40'2 2.2
2014-Nov-23 05:33N 48°57' W 123°42'1 0.6
2014-Nov-23 04:33N 48°56' W 123°42'2 1.8
2014-Nov-23 03:30N 48°58' W 123°40'3 2.8
2014-Nov-23 02:33N 48°56' W 123°43'3 2.5
2014-Nov-23 01:31N 48°58' W 123°41'0 0.3
2014-Nov-23 00:33N 48°58' W 123°41'3 3.1
2014-Nov-22 23:33N 48°56' W 123°43'4 2.7
2014-Nov-22 22:15N 48°59' W 123°41'3 4.6
2014-Nov-22 21:33N 48°56' W 123°43'2 2.2
2014-Nov-22 20:33N 48°57' W 123°40'2 2.5
2014-Nov-22 19:33N 48°56' W 123°43'3 3.1
2014-Nov-22 18:27N 48°58' W 123°40'1 0.9
2014-Nov-22 17:33N 48°57' W 123°40'3 2.6
2014-Nov-22 16:33N 48°56' W 123°43'3 3.4
2014-Nov-22 15:33N 48°58' W 123°40'0 0.1
2014-Nov-22 14:27N 48°58' W 123°40'0 0.0
2014-Nov-22 06:33N 48°58' W 123°40'1 1.4
2014-Nov-22 05:33N 48°57' W 123°42'1 0.8
2014-Nov-22 04:33N 48°56' W 123°42'2 1.5
2014-Nov-22 03:29N 48°58' W 123°41'1 1.3
2014-Nov-22 02:28N 48°57' W 123°41'0 0.5
2014-Nov-22 01:33N 48°57' W 123°42'2 1.5
2014-Nov-22 00:31N 48°58' W 123°41'3 3.2
2014-Nov-21 23:32N 48°56' W 123°43'3 2.7
2014-Nov-21 22:32N 48°58' W 123°41'1 0.7
2014-Nov-21 21:28N 48°58' W 123°40'3 3.4
2014-Nov-21 20:33N 48°56' W 123°43'1 0.5
2014-Nov-21 19:32N 48°56' W 123°42'2 1.8
2014-Nov-21 18:17N 48°58' W 123°40'2 2.7
2014-Nov-21 17:33N 48°56' W 123°42'1 0.9
2014-Nov-21 16:33N 48°56' W 123°43'3 3.0
2014-Nov-21 15:31N 48°58' W 123°40'0 0.1
2014-Nov-21 14:27N 48°58' W 123°40'0 0.0
2014-Nov-21 06:30N 48°58' W 123°40'2 1.6
2014-Nov-21 05:33N 48°57' W 123°42'1 1.0
2014-Nov-21 04:33N 48°56' W 123°42'2 2.2
2014-Nov-21 03:25N 48°59' W 123°41'2 2.8
2014-Nov-21 02:33N 48°56' W 123°42'1 0.7
2014-Nov-21 01:31N 48°57' W 123°42'2 1.7
2014-Nov-21 00:31N 48°59' W 123°41'4 3.7
2014-Nov-20 23:33N 48°56' W 123°43'3 2.8
2014-Nov-20 22:28N 48°58' W 123°40'1 1.0
2014-Nov-20 21:28N 48°59' W 123°41'3 3.2
2014-Nov-20 20:33N 48°56' W 123°42'1 1.1
2014-Nov-20 19:31N 48°57' W 123°42'1 0.6
2014-Nov-20 18:25N 48°56' W 123°42'2 2.3
2014-Nov-20 17:29N 48°58' W 123°40'3 3.6
2014-Nov-20 16:33N 48°56' W 123°43'3 2.6
2014-Nov-20 15:29N 48°58' W 123°40'1 0.7
2014-Nov-20 14:30N 48°58' W 123°40'1 0.4
2014-Nov-20 12:16N 48°59' W 123°41'0 0.0
2014-Nov-20 11:31N 48°59' W 123°41'0 0.0
2014-Nov-20 08:07N 48°59' W 123°41'0 0.0
2014-Nov-20 07:31N 48°59' W 123°41'1 1.0
2014-Nov-20 06:33N 48°58' W 123°40'1 1.4
2014-Nov-20 05:33N 48°57' W 123°42'0 0.5
2014-Nov-20 04:33N 48°56' W 123°42'2 1.7
2014-Nov-20 03:32N 48°58' W 123°40'3 2.8
2014-Nov-20 02:33N 48°56' W 123°43'3 2.9
2014-Nov-20 01:33N 48°58' W 123°41'0 0.5
2014-Nov-20 00:33N 48°59' W 123°41'4 3.6
2014-Nov-19 23:33N 48°56' W 123°43'3 2.5
2014-Nov-19 22:16N 48°59' W 123°41'2 2.0
2014-Nov-19 21:30N 48°57' W 123°42'1 0.7
2014-Nov-19 20:33N 48°56' W 123°42'1 1.4
2014-Nov-19 19:31N 48°58' W 123°41'1 1.2
2014-Nov-19 18:32N 48°57' W 123°41'2 1.5
2014-Nov-19 17:33N 48°58' W 123°40'3 3.0
2014-Nov-19 16:33N 48°56' W 123°43'3 3.0
2014-Nov-19 15:32N 48°58' W 123°40'0 0.1
2014-Nov-19 14:28N 48°58' W 123°40'0 0.0
2014-Nov-19 06:31N 48°58' W 123°40'2 1.6
2014-Nov-19 05:33N 48°57' W 123°42'1 1.1
2014-Nov-19 04:31N 48°56' W 123°42'2 1.9
2014-Nov-19 03:30N 48°58' W 123°41'3 2.7
2014-Nov-19 02:32N 48°56' W 123°43'3 2.7
2014-Nov-19 01:33N 48°58' W 123°41'0 0.1
2014-Nov-19 00:33N 48°58' W 123°41'3 2.6
2014-Nov-18 23:25N 48°56' W 123°43'4 4.0
2014-Nov-18 22:32N 48°59' W 123°41'3 2.8
2014-Nov-18 21:31N 48°56' W 123°42'1 1.1
2014-Nov-18 20:33N 48°57' W 123°41'1 0.6
2014-Nov-18 19:33N 48°57' W 123°42'1 0.8
2014-Nov-18 18:33N 48°57' W 123°41'1 1.3
2014-Nov-18 17:33N 48°58' W 123°40'3 3.4
2014-Nov-18 16:33N 48°56' W 123°43'3 2.8
2014-Nov-18 15:30N 48°58' W 123°40'0 0.5
2014-Nov-18 14:32N 48°58' W 123°40'1 0.8
2014-Nov-18 13:23N 48°59' W 123°41'0 0.0
2014-Nov-18 12:05N 48°59' W 123°41'0 0.0
2014-Nov-18 09:29N 48°59' W 123°41'1 0.3
2014-Nov-18 06:32N 48°58' W 123°40'1 1.5
2014-Nov-18 05:33N 48°57' W 123°42'1 1.1
2014-Nov-18 04:33N 48°56' W 123°42'2 2.4
2014-Nov-18 03:33N 48°58' W 123°40'2 2.4
2014-Nov-18 02:32N 48°56' W 123°42'2 2.3
2014-Nov-18 01:32N 48°58' W 123°41'1 0.7
2014-Nov-18 00:30N 48°59' W 123°41'4 3.8
2014-Nov-17 23:33N 48°56' W 123°43'3 2.9
2014-Nov-17 22:30N 48°58' W 123°41'1 0.5
2014-Nov-17 21:31N 48°59' W 123°41'4 3.7
2014-Nov-17 20:33N 48°56' W 123°43'1 1.0
2014-Nov-17 19:32N 48°56' W 123°42'1 1.2
2014-Nov-17 18:33N 48°57' W 123°41'1 0.9
2014-Nov-17 17:31N 48°58' W 123°40'3 3.1
2014-Nov-17 16:33N 48°56' W 123°43'2 2.4
2014-Nov-17 15:32N 48°57' W 123°40'1 1.0
2014-Nov-17 14:32N 48°58' W 123°40'1 0.7
2014-Nov-17 13:13N 48°59' W 123°41'0 0.0
2014-Nov-17 11:28N 48°59' W 123°41'0 0.0
2014-Nov-17 10:22N 48°59' W 123°41'0 0.0
2014-Nov-17 08:31N 48°59' W 123°41'0 0.0
2014-Nov-17 07:13N 48°59' W 123°41'1 1.4
2014-Nov-17 06:33N 48°58' W 123°40'2 1.5
2014-Nov-17 05:33N 48°57' W 123°42'1 0.6
2014-Nov-17 04:33N 48°56' W 123°42'2 1.7
2014-Nov-17 03:33N 48°58' W 123°40'3 2.5
2014-Nov-17 02:33N 48°56' W 123°42'3 2.6
2014-Nov-17 01:32N 48°58' W 123°41'0 0.3
2014-Nov-17 00:33N 48°59' W 123°41'3 3.4
2014-Nov-16 23:33N 48°56' W 123°43'4 3.5
2014-Nov-16 22:33N 48°59' W 123°41'3 3.0
2014-Nov-16 21:33N 48°56' W 123°42'2 1.6
2014-Nov-16 20:33N 48°57' W 123°41'2 2.1
2014-Nov-16 19:32N 48°56' W 123°43'3 3.4
2014-Nov-16 18:32N 48°58' W 123°40'1 0.9
2014-Nov-16 17:33N 48°57' W 123°40'3 2.6
2014-Nov-16 16:34N 48°56' W 123°43'3 3.1
2014-Nov-16 15:33N 48°58' W 123°40'0 0.3
2014-Nov-16 14:32N 48°58' W 123°40'1 0.4
2014-Nov-16 12:23N 48°59' W 123°41'0 0.0
2014-Nov-16 11:05N 48°59' W 123°41'0 0.0
2014-Nov-16 10:32N 48°59' W 123°41'0 0.0
2014-Nov-16 09:08N 48°59' W 123°41'0 0.0
2014-Nov-16 08:23N 48°59' W 123°41'0 0.0
2014-Nov-16 07:26N 48°59' W 123°41'1 0.9
2014-Nov-16 06:28N 48°58' W 123°40'2 2.0
2014-Nov-16 05:33N 48°57' W 123°42'1 0.7
2014-Nov-16 04:33N 48°56' W 123°42'2 1.9
2014-Nov-16 03:33N 48°58' W 123°40'2 2.3
2014-Nov-16 02:33N 48°56' W 123°42'2 2.4
2014-Nov-16 01:32N 48°58' W 123°41'0 0.2
2014-Nov-16 00:33N 48°58' W 123°41'3 3.2
2014-Nov-15 23:33N 48°56' W 123°43'3 2.1
2014-Nov-15 22:10N 48°58' W 123°41'3 4.3
2014-Nov-15 21:33N 48°56' W 123°43'2 2.2
2014-Nov-15 20:33N 48°57' W 123°40'3 2.5
2014-Nov-15 19:33N 48°56' W 123°43'3 3.0
2014-Nov-15 18:27N 48°58' W 123°40'1 0.8
2014-Nov-15 17:33N 48°58' W 123°40'3 2.7
2014-Nov-15 16:33N 48°56' W 123°43'3 2.9
2014-Nov-15 15:32N 48°58' W 123°40'0 0.4
2014-Nov-15 14:31N 48°58' W 123°40'1 0.9
2014-Nov-15 13:28N 48°59' W 123°41'0 0.0
2014-Nov-15 12:04N 48°59' W 123°41'0 0.0
2014-Nov-15 11:31N 48°59' W 123°41'0 0.0
2014-Nov-15 10:28N 48°59' W 123°41'0 0.0
2014-Nov-15 09:10N 48°59' W 123°41'0 0.0
2014-Nov-15 07:19N 48°59' W 123°41'1 1.1
2014-Nov-15 06:32N 48°58' W 123°40'2 1.6
2014-Nov-15 05:33N 48°57' W 123°42'1 1.3
2014-Nov-15 04:34N 48°56' W 123°42'2 2.5
2014-Nov-15 03:33N 48°58' W 123°40'3 2.5
2014-Nov-15 02:33N 48°56' W 123°42'3 2.7
2014-Nov-15 01:34N 48°58' W 123°41'0 0.2
2014-Nov-15 00:31N 48°59' W 123°41'3 3.4
2014-Nov-14 23:33N 48°56' W 123°43'4 3.5
2014-Nov-14 22:32N 48°59' W 123°41'1 1.1
2014-Nov-14 21:33N 48°58' W 123°40'3 3.1
2014-Nov-14 20:33N 48°56' W 123°43'1 0.7
2014-Nov-14 19:34N 48°56' W 123°42'3 2.1
2014-Nov-14 18:15N 48°58' W 123°40'2 3.2
2014-Nov-14 17:33N 48°57' W 123°42'1 1.1
2014-Nov-14 16:33N 48°56' W 123°43'3 3.0
2014-Nov-14 15:32N 48°58' W 123°40'0 0.3
2014-Nov-14 14:29N 48°58' W 123°40'1 0.5
2014-Nov-14 12:32N 48°59' W 123°41'0 0.0
2014-Nov-14 07:17N 48°59' W 123°41'1 1.2
2014-Nov-14 06:30N 48°58' W 123°40'2 2.1
2014-Nov-14 05:33N 48°57' W 123°42'1 0.7
2014-Nov-14 04:33N 48°56' W 123°42'2 2.0
2014-Nov-14 03:33N 48°58' W 123°40'2 2.3
2014-Nov-14 02:33N 48°56' W 123°42'2 2.1
2014-Nov-14 01:30N 48°58' W 123°41'0 0.5
2014-Nov-14 00:33N 48°58' W 123°41'3 3.2
2014-Nov-13 23:33N 48°56' W 123°43'4 3.5
2014-Nov-13 22:32N 48°59' W 123°41'2 2.3
2014-Nov-13 21:32N 48°57' W 123°42'0 0.4
2014-Nov-13 20:33N 48°56' W 123°42'0 0.4
2014-Nov-13 19:33N 48°57' W 123°42'1 0.7
2014-Nov-13 18:33N 48°57' W 123°41'1 1.2
2014-Nov-13 17:29N 48°58' W 123°40'  

Dump ship's entire track history